Time;durP1;ratioP1;P1;durP2;ratioP2;P2;SDS_P1;SDS_P2;PMS_P1;PMS_P2;Temp;Humidity;BMP_temperature;BMP_pressure;BME280_temperature;BME280_humidity;BME280_pressure;Samples;Min_cycle;Max_cycle;Signal;HPM_P1;HPM_P2
2021/12/19 00:01:43;;;;;;;9.20;5.20;;;;;;;14.67;51.23;103404.06;4939679;29;20030;-59
2021/12/19 00:04:16;;;;;;;7.70;4.40;;;;;;;14.63;50.80;103402.53;4955957;29;20049;-59
2021/12/19 00:09:27;;;;;;;11.65;4.95;;;;;;;14.63;51.97;103397.16;4941259;29;20026;-60
2021/12/19 00:11:53;;;;;;;14.60;5.43;;;;;;;14.64;51.46;103393.47;4955969;29;20031;-60
2021/12/19 00:14:20;;;;;;;10.43;4.70;;;;;;;14.65;51.54;103387.13;4939298;29;20027;-59
2021/12/19 00:16:46;;;;;;;10.63;4.95;;;;;;;14.67;50.52;103393.28;4956141;29;20047;-59
2021/12/19 00:19:11;;;;;;;9.77;5.55;;;;;;;14.68;50.48;103395.03;4956268;29;20082;-60
2021/12/19 00:21:39;;;;;;;9.65;4.47;;;;;;;14.67;50.80;103393.28;4955993;29;20110;-59
2021/12/19 00:24:05;;;;;;;7.75;3.92;;;;;;;14.69;50.49;103391.34;4939475;29;20500;-59
2021/12/19 00:26:30;;;;;;;9.77;4.05;;;;;;;14.68;50.15;103389.63;4955596;29;20066;-59
2021/12/19 00:28:56;;;;;;;10.27;4.10;;;;;;;14.70;51.07;103387.69;4956134;29;20515;-60
2021/12/19 00:31:21;;;;;;;6.95;2.92;;;;;;;14.70;50.86;103382.31;4956144;29;20041;-60
2021/12/19 00:33:47;;;;;;;8.82;4.32;;;;;;;14.68;50.14;103379.72;4956181;29;20058;-59
2021/12/19 00:36:13;;;;;;;12.15;5.07;;;;;;;14.72;50.48;103380.38;4956094;29;20031;-60
2021/12/19 00:38:38;;;;;;;10.35;3.53;;;;;;;14.72;50.78;103383.94;4955806;29;20109;-59
2021/12/19 00:41:05;;;;;;;10.23;4.22;;;;;;;14.73;50.77;103376.72;4956095;29;20082;-59
2021/12/19 00:46:06;;;;;;;9.65;4.07;;;;;;;14.72;50.28;103372.28;4939399;29;20031;-59
2021/12/19 00:48:32;;;;;;;9.68;3.58;;;;;;;14.71;50.65;103362.47;4956370;29;20027;-60
2021/12/19 00:50:57;;;;;;;11.75;4.60;;;;;;;14.75;50.47;103369.41;4938728;29;20365;-60
2021/12/19 00:53:23;;;;;;;10.93;4.85;;;;;;;14.75;51.15;103369.41;4938622;29;20027;-59
2021/12/19 00:55:48;;;;;;;10.68;4.40;;;;;;;14.75;51.76;103354.09;4955771;29;20508;-59
2021/12/19 00:58:13;;;;;;;13.35;5.10;;;;;;;14.76;51.00;103361.22;4955512;29;20501;-59
2021/12/19 01:00:39;;;;;;;10.63;4.50;;;;;;;14.78;51.74;103358.41;4956082;29;20030;-59
2021/12/19 01:03:05;;;;;;;10.00;4.18;;;;;;;14.78;50.78;103353.03;4938920;29;20141;-59
2021/12/19 01:05:33;;;;;;;12.23;4.85;;;;;;;14.78;50.55;103362.00;4955939;29;20031;-59
2021/12/19 01:07:59;;;;;;;9.57;3.92;;;;;;;14.79;52.01;103361.03;4955656;29;20229;-60
2021/12/19 01:10:24;;;;;;;10.63;4.07;;;;;;;14.78;51.71;103351.19;4958414;28;20496;-60
2021/12/19 01:12:50;;;;;;;10.43;4.20;;;;;;;14.79;50.52;103341.28;4942259;29;20085;-60
2021/12/19 01:15:16;;;;;;;12.05;4.32;;;;;;;14.79;50.32;103343.97;4959255;29;20074;-60
2021/12/19 01:17:42;;;;;;;8.18;3.45;;;;;;;14.80;50.48;103345.69;4959206;29;20035;-60
2021/12/19 01:20:23;;;;;;;9.35;3.83;;;;;;;14.80;50.46;103351.09;4959339;29;20039;-59
2021/12/19 01:22:49;;;;;;;8.65;3.78;;;;;;;14.79;50.87;103336.75;4959086;29;20027;-60
2021/12/19 01:25:16;;;;;;;9.20;4.28;;;;;;;14.82;51.54;103349.19;4959127;29;20066;-60
2021/12/19 01:27:41;;;;;;;9.23;3.70;;;;;;;14.82;51.54;103349.19;4959033;29;20420;-60
2021/12/19 01:30:09;;;;;;;8.27;3.72;;;;;;;14.83;51.84;103345.50;4941769;29;20114;-60
2021/12/19 01:32:35;;;;;;;8.10;3.65;;;;;;;14.81;50.23;103352.84;4958909;29;20027;-59
2021/12/19 01:35:00;;;;;;;7.93;3.63;;;;;;;14.82;51.76;103344.66;4959149;29;20027;-60
2021/12/19 01:37:25;;;;;;;8.85;4.07;;;;;;;14.83;50.51;103361.69;4942021;29;20023;-60
2021/12/19 01:39:51;;;;;;;13.60;5.18;;;;;;;14.84;52.02;103355.34;4958676;29;20082;-60
2021/12/19 01:42:19;;;;;;;8.13;4.00;;;;;;;14.84;51.64;103352.66;4958928;29;20477;-60
2021/12/19 01:44:48;;;;;;;8.52;3.95;;;;;;;14.83;50.74;103350.91;4959066;29;20031;-59
2021/12/19 01:47:14;;;;;;;8.57;4.03;;;;;;;14.85;51.40;103357.09;4958759;29;20511;-59
2021/12/19 01:49:40;;;;;;;9.90;3.85;;;;;;;14.81;50.60;103350.13;4958378;29;20019;-60
2021/12/19 01:52:05;;;;;;;10.40;3.78;;;;;;;14.83;51.75;103340.97;4958840;29;20429;-60
2021/12/19 01:54:31;;;;;;;11.23;4.63;;;;;;;14.87;51.13;103347.06;4925738;29;20061;-60
2021/12/19 01:56:56;;;;;;;8.13;3.50;;;;;;;14.88;51.09;103351.50;4958657;29;20082;-60
2021/12/19 01:59:22;;;;;;;8.55;3.88;;;;;;;14.87;51.62;103341.66;4941432;29;20034;-60
2021/12/19 02:01:50;;;;;;;7.80;3.80;;;;;;;14.87;52.03;103334.44;4941215;29;20030;-60
2021/12/19 02:04:17;;;;;;;10.57;4.50;;;;;;;14.86;50.66;103334.53;4958539;29;20031;-59
2021/12/19 02:06:42;;;;;;;9.55;3.53;;;;;;;14.87;51.98;103336.28;4958304;29;20101;-59
2021/12/19 02:09:08;;;;;;;14.77;3.80;;;;;;;14.84;50.97;103326.53;4940940;29;20473;-59
2021/12/19 02:11:34;;;;;;;12.77;4.53;;;;;;;14.87;52.03;103326.34;4941052;29;20032;-59
2021/12/19 02:14:01;;;;;;;10.35;3.95;;;;;;;14.88;50.88;103322.66;4958356;29;20476;-59
2021/12/19 02:16:26;;;;;;;10.85;4.22;;;;;;;14.88;51.21;103316.44;4958468;29;20035;-60
2021/12/19 02:18:51;;;;;;;9.98;3.97;;;;;;;14.89;51.68;103319.03;4958159;29;20432;-60
2021/12/19 02:21:17;;;;;;;10.50;4.60;;;;;;;14.83;50.51;103310.44;4924989;29;20037;-59
2021/12/19 02:23:42;;;;;;;9.35;4.03;;;;;;;14.89;51.84;103315.44;4958208;29;20031;-60
2021/12/19 02:26:08;;;;;;;8.60;4.45;;;;;;;14.88;50.92;103311.03;4957908;29;20492;-59
2021/12/19 02:28:33;;;;;;;11.68;5.03;;;;;;;14.88;51.73;103300.25;4958095;29;20020;-60
2021/12/19 02:30:58;;;;;;;9.25;4.22;;;;;;;14.88;51.91;103294.84;4940848;29;20027;-60
2021/12/19 02:33:26;;;;;;;9.10;4.70;;;;;;;14.78;51.70;103277.47;4957422;29;20027;-59
2021/12/19 02:36:07;;;;;;;7.88;3.70;;;;;;;14.89;51.73;103301.94;4940759;29;20038;-60
2021/12/19 02:49:30;;;;;;;12.88;4.90;;;;;;;14.89;50.70;103286.63;4943298;29;20093;-60
2021/12/19 02:51:56;;;;;;;10.60;4.35;;;;;;;14.90;50.53;103287.50;4957783;29;20058;-60
2021/12/19 02:54:22;;;;;;;9.32;4.32;;;;;;;14.92;51.10;103280.16;4957688;29;20384;-60
2021/12/19 02:56:49;;;;;;;14.00;5.53;;;;;;;14.91;50.63;103276.59;4940388;29;20042;-59
2021/12/19 02:59:14;;;;;;;11.10;4.93;;;;;;;14.92;51.52;103281.03;4957400;29;20377;-59
2021/12/19 03:01:43;;;;;;;12.43;5.25;;;;;;;14.91;50.59;103273.91;4956892;29;20038;-59
2021/12/19 03:04:08;;;;;;;14.63;5.55;;;;;;;14.91;50.88;103281.13;4957274;29;20031;-60
2021/12/19 03:06:34;;;;;;;12.50;6.25;;;;;;;14.90;50.60;103277.59;4957226;29;20461;-60
2021/12/19 03:09:05;;;;;;;11.02;4.30;;;;;;;14.91;50.24;103273.03;4940080;29;20020;-60
2021/12/19 03:19:56;;;;;;;11.27;5.10;;;;;;;14.86;50.67;103265.25;4924527;29;20047;-59
2021/12/19 03:22:21;;;;;;;16.70;6.18;;;;;;;14.83;50.63;103260.03;4939746;29;20392;-60
2021/12/19 03:24:46;;;;;;;13.85;6.90;;;;;;;14.87;50.88;103264.28;4939796;29;20495;-59
2021/12/19 03:27:12;;;;;;;16.33;5.38;;;;;;;14.86;51.72;103267.06;4936198;29;20054;-59
2021/12/19 03:29:37;;;;;;;15.85;6.07;;;;;;;14.85;51.77;103263.50;4936362;29;20035;-59
2021/12/19 03:32:03;;;;;;;13.43;5.28;;;;;;;14.85;51.50;103260.78;4937162;29;20115;-60
2021/12/19 03:34:28;;;;;;;11.75;5.22;;;;;;;14.83;51.57;103256.47;4937992;29;20374;-59
2021/12/19 03:36:53;;;;;;;12.68;5.50;;;;;;;14.83;51.13;103253.75;4936747;29;20055;-59
2021/12/19 03:39:27;;;;;;;16.40;5.85;;;;;;;14.83;51.33;103253.75;4936291;29;20059;-59
2021/12/19 03:41:55;;;;;;;12.57;5.35;;;;;;;14.83;52.07;103248.38;4936460;29;20031;-59
2021/12/19 03:44:20;;;;;;;14.52;5.20;;;;;;;14.81;51.49;103248.47;4936299;28;20185;-60
2021/12/19 03:46:45;;;;;;;12.15;5.47;;;;;;;14.81;50.37;103250.31;4937500;29;20106;-59
2021/12/19 03:49:11;;;;;;;16.10;5.38;;;;;;;14.81;50.98;103242.22;4937624;29;20103;-60
2021/12/19 03:51:37;;;;;;;12.13;4.90;;;;;;;14.79;50.64;103233.34;4937616;29;20019;-60
2021/12/19 03:54:02;;;;;;;14.68;5.57;;;;;;;14.80;50.64;103227.84;4937040;29;20181;-60
2021/12/19 03:56:27;;;;;;;14.65;5.15;;;;;;;14.81;50.94;103240.38;4936297;29;20571;-59
2021/12/19 03:58:53;;;;;;;15.27;5.63;;;;;;;14.79;51.88;103231.53;4936024;29;20036;-59
2021/12/19 04:01:19;;;;;;;14.07;5.40;;;;;;;14.77;51.18;103233.44;4937413;29;20034;-60
2021/12/19 04:03:46;;;;;;;11.40;5.00;;;;;;;14.80;51.65;103243.16;4936032;29;20469;-59
2021/12/19 04:06:11;;;;;;;11.50;4.80;;;;;;;14.76;50.57;103230.84;4935991;28;20508;-59
2021/12/19 04:08:36;;;;;;;12.85;5.50;;;;;;;14.79;51.85;103228.81;4935613;29;20126;-60
2021/12/19 04:11:02;;;;;;;12.20;4.95;;;;;;;14.80;50.76;103226.97;4937108;29;20043;-60
2021/12/19 04:13:28;;;;;;;10.55;4.40;;;;;;;14.75;51.44;103208.38;4935954;29;20039;-59
2021/12/19 04:15:53;;;;;;;7.68;4.05;;;;;;;14.76;50.74;103214.66;4937427;29;20036;-60
2021/12/19 04:18:19;;;;;;;8.85;4.43;;;;;;;14.76;51.93;103210.13;4937239;29;20079;-60
2021/12/19 04:20:44;;;;;;;10.20;5.05;;;;;;;14.76;52.28;103215.53;4937224;29;20056;-59
2021/12/19 04:23:10;;;;;;;11.32;4.32;;;;;;;14.76;51.85;103204.75;4937204;29;20110;-59
2021/12/19 04:25:35;;;;;;;9.35;4.18;;;;;;;14.77;51.36;103209.16;4936864;28;20107;-59
2021/12/19 04:28:02;;;;;;;8.43;3.80;;;;;;;14.78;50.46;103202.78;4955708;29;20398;-59
2021/12/19 04:30:28;;;;;;;9.68;3.92;;;;;;;14.76;50.82;103203.88;4956048;29;20067;-59
2021/12/19 04:33:03;;;;;;;7.05;3.25;;;;;;;14.75;52.05;103194.03;4956377;29;20034;-60
2021/12/19 04:35:32;;;;;;;8.40;3.70;;;;;;;14.74;51.65;103193.16;4956087;29;20082;-60
2021/12/19 04:54:13;;;;;;;6.50;3.08;;;;;;;14.68;52.31;103181.91;4959860;29;20408;-60
2021/12/19 04:56:48;;;;;;;6.95;3.05;;;;;;;14.68;52.04;103173.81;4959358;29;20042;-60
2021/12/19 05:14:04;;;;;;;7.85;3.70;;;;;;;14.66;50.95;103162.22;4959571;29;20042;-60
2021/12/19 05:15:07;;;;;;;7.78;3.22;;;;;;;14.60;51.18;103152.69;4959338;28;20042;-60
2021/12/19 05:17:33;;;;;;;6.72;2.55;;;;;;;14.63;52.11;103154.38;4942101;29;20031;-60
2021/12/19 05:20:18;;;;;;;7.50;4.47;;;;;;;14.63;51.76;103148.97;4959277;29;20038;-59
2021/12/19 05:22:48;;;;;;;8.07;3.10;;;;;;;14.63;52.29;103143.56;4959149;29;20098;-59
2021/12/19 05:25:14;;;;;;;6.15;2.67;;;;;;;14.62;51.79;103147.22;4941478;29;20027;-60
2021/12/19 05:28:06;;;;;;;7.47;3.25;;;;;;;14.60;52.16;103155.41;4959003;29;20051;-59
2021/12/19 05:30:31;;;;;;;7.20;3.08;;;;;;;14.58;50.83;103152.81;4956320;29;20043;-59
2021/12/19 05:32:59;;;;;;;8.00;3.40;;;;;;;14.58;51.26;103152.81;4958839;29;20050;-60
2021/12/19 05:35:46;;;;;;;7.18;3.38;;;;;;;14.58;50.81;103157.34;4959247;29;20035;-60
2021/12/19 05:46:22;;;;;;;7.20;3.20;;;;;;;14.52;51.90;103147.81;4958354;29;20038;-60
2021/12/19 05:48:47;;;;;;;5.85;2.70;;;;;;;14.55;52.09;103157.53;4958947;29;20023;-59
2021/12/19 05:51:13;;;;;;;6.10;2.90;;;;;;;14.54;51.09;103162.06;4941824;29;20481;-59
2021/12/19 05:53:38;;;;;;;6.90;3.08;;;;;;;14.52;51.69;103153.19;4958913;29;20035;-60
2021/12/19 05:56:04;;;;;;;9.93;3.03;;;;;;;14.52;51.12;103153.19;4958439;28;20114;-60
2021/12/19 05:58:29;;;;;;;5.95;2.85;;;;;;;14.52;51.03;103150.50;4941234;29;20043;-60
2021/12/19 06:00:54;;;;;;;7.07;3.08;;;;;;;14.56;51.84;103159.28;4958169;29;20049;-60
2021/12/19 06:03:20;;;;;;;5.82;2.85;;;;;;;14.56;51.08;103156.56;4958167;29;20035;-59
2021/12/19 06:05:45;;;;;;;6.72;3.00;;;;;;;14.54;51.37;103145.88;4957937;29;20031;-60
2021/12/19 06:08:11;;;;;;;6.45;3.05;;;;;;;14.56;51.01;103159.28;4941408;29;20036;-60
2021/12/19 06:10:36;;;;;;;6.55;2.70;;;;;;;14.56;50.80;103160.16;4958186;29;20035;-59
2021/12/19 06:13:01;;;;;;;8.13;3.38;;;;;;;14.57;51.32;103155.63;4958381;29;20061;-60
2021/12/19 06:15:27;;;;;;;7.00;3.17;;;;;;;14.56;51.97;103154.75;4958311;29;20543;-60
2021/12/19 06:17:53;;;;;;;9.82;3.42;;;;;;;14.53;50.96;103152.25;4940910;29;20503;-60
2021/12/19 06:20:19;;;;;;;6.00;2.42;;;;;;;14.54;52.34;103145.88;4940890;29;20110;-60
2021/12/19 06:22:44;;;;;;;8.43;2.97;;;;;;;14.52;52.24;103147.81;4940950;29;20031;-59
2021/12/19 06:25:10;;;;;;;4.28;2.25;;;;;;;14.50;50.75;103135.38;4940698;29;20507;-59
2021/12/19 06:27:36;;;;;;;7.22;3.33;;;;;;;14.54;51.47;103148.56;4957924;29;20043;-60
2021/12/19 06:30:02;;;;;;;9.68;3.35;;;;;;;14.55;51.69;103142.22;4957580;29;20031;-59
2021/12/19 06:32:27;;;;;;;6.18;2.80;;;;;;;14.57;51.70;103144.84;4957816;29;20034;-59
2021/12/19 06:34:52;;;;;;;6.15;2.40;;;;;;;14.57;52.26;103140.28;4957969;29;20039;-59
2021/12/19 06:37:18;;;;;;;7.57;2.35;;;;;;;14.56;52.13;103138.56;4957946;29;20026;-59
2021/12/19 06:39:43;;;;;;;6.60;2.60;;;;;;;14.56;51.71;103129.59;4957550;29;20027;-59
2021/12/19 06:42:09;;;;;;;7.90;3.13;;;;;;;14.56;50.59;103141.25;4957777;29;20038;-60
2021/12/19 06:44:36;;;;;;;7.97;2.67;;;;;;;14.53;52.11;103127.09;4957740;29;20027;-60
2021/12/19 06:47:03;;;;;;;4.95;2.00;;;;;;;14.52;51.14;103126.22;4957706;29;20027;-60
2021/12/19 06:49:29;;;;;;;8.10;2.83;;;;;;;14.53;50.91;103129.81;4957829;29;20022;-59
2021/12/19 06:51:54;;;;;;;5.85;2.58;;;;;;;14.51;51.83;103134.44;4957561;29;20395;-61
2021/12/19 06:54:20;;;;;;;8.35;2.78;;;;;;;14.52;51.29;103128.94;4957244;29;20035;-60
2021/12/19 06:56:45;;;;;;;9.13;2.80;;;;;;;14.51;50.92;103132.59;4957522;29;20060;-60
2021/12/19 06:59:11;;;;;;;8.75;3.72;;;;;;;14.53;50.92;103127.09;4957195;29;20036;-59
2021/12/19 07:01:37;;;;;;;9.98;3.15;;;;;;;14.53;50.99;103127.97;4940169;29;20480;-60
2021/12/19 07:04:02;;;;;;;8.88;2.92;;;;;;;14.49;51.71;103121.03;4957316;29;20035;-61
2021/12/19 07:06:27;;;;;;;8.70;3.15;;;;;;;14.44;51.65;103112.38;4939468;29;20031;-59
2021/12/19 07:08:53;;;;;;;8.63;3.55;;;;;;;14.43;51.89;103110.63;4923951;29;20034;-59
2021/12/19 07:11:18;;;;;;;8.27;3.45;;;;;;;14.45;51.14;103113.25;4957185;29;20111;-59
2021/12/19 07:13:44;;;;;;;6.90;2.58;;;;;;;14.43;51.89;103110.63;4939590;29;20031;-60
2021/12/19 07:16:09;;;;;;;7.47;2.90;;;;;;;14.42;51.36;103110.75;4957190;29;20460;-60
2021/12/19 07:18:36;;;;;;;8.40;2.80;;;;;;;14.42;50.84;103108.91;4956742;29;20031;-60
2021/12/19 07:21:03;;;;;;;4.68;2.33;;;;;;;14.41;52.24;103107.16;4957099;29;20058;-60
2021/12/19 07:23:28;;;;;;;7.28;3.08;;;;;;;14.40;52.40;103105.47;4956853;29;20038;-59
2021/12/19 07:25:53;;;;;;;6.78;2.33;;;;;;;14.41;52.32;103107.16;4956761;29;20404;-60
2021/12/19 07:28:19;;;;;;;4.82;2.92;;;;;;;14.40;51.84;103110.84;4956822;29;20142;-59
2021/12/19 07:30:44;;;;;;;5.90;2.40;;;;;;;14.39;51.23;103103.72;4956952;29;20034;-59
2021/12/19 07:33:11;;;;;;;9.35;3.05;;;;;;;14.40;50.58;103105.47;4957029;29;20512;-60
2021/12/19 07:35:40;;;;;;;6.10;2.55;;;;;;;14.39;51.06;103106.41;4956736;29;20019;-59
2021/12/19 07:38:08;;;;;;;7.47;3.05;;;;;;;14.40;51.08;103099.19;4956553;29;20476;-60
2021/12/19 07:40:36;;;;;;;6.80;2.13;;;;;;;14.40;51.90;103110.84;4956862;29;20027;-60
2021/12/19 07:43:09;;;;;;;8.15;2.42;;;;;;;14.40;51.06;103105.47;4956688;29;20034;-64
2021/12/19 07:45:34;;;;;;;;;;;;;;;14.41;51.85;103107.16;4957033;29;20451;-59
2021/12/19 07:48:00;;;;;;;6.95;2.58;;;;;;;14.41;51.66;103104.47;4956780;29;19965;-59
2021/12/19 07:50:26;;;;;;;8.25;2.67;;;;;;;14.42;50.94;103103.53;4956838;29;20034;-59
2021/12/19 07:52:52;;;;;;;6.72;2.13;;;;;;;14.34;51.14;103086.97;4956396;29;20082;-59
2021/12/19 07:55:17;;;;;;;9.02;3.08;;;;;;;14.41;51.37;103095.50;4939868;29;20123;-60
2021/12/19 07:57:43;;;;;;;10.75;3.38;;;;;;;14.39;50.52;103092.94;4956197;29;20105;-59
2021/12/19 08:00:11;;;;;;;9.15;2.85;;;;;;;14.40;52.01;103094.69;4956179;29;20441;-60
2021/12/19 08:02:36;;;;;;;8.23;3.13;;;;;;;14.40;51.26;103094.69;4938901;29;20031;-59
2021/12/19 08:05:02;;;;;;;7.32;2.80;;;;;;;14.38;50.94;103088.50;4956356;29;20503;-59
2021/12/19 08:07:28;;;;;;;6.07;2.75;;;;;;;14.42;50.73;103086.47;4955911;29;20473;-60
2021/12/19 08:12:51;;;;;;;10.38;4.05;;;;;;;14.38;51.21;103090.31;4923831;29;20068;-60
2021/12/19 08:15:16;;;;;;;8.82;3.20;;;;;;;14.39;51.41;103095.63;4955979;29;20110;-59
2021/12/19 08:17:42;;;;;;;8.60;3.65;;;;;;;14.43;51.14;103099.84;4938717;28;20074;-60
2021/12/19 08:20:11;;;;;;;7.57;3.42;;;;;;;14.40;50.38;103078.50;4956162;29;20050;-59
2021/12/19 08:22:37;;;;;;;7.75;3.00;;;;;;;14.44;52.13;103096.19;4956430;29;20030;-59
2021/12/19 08:25:04;;;;;;;7.53;3.72;;;;;;;14.43;51.03;103088.22;4956679;29;20035;-59
2021/12/19 08:27:29;;;;;;;8.02;3.83;;;;;;;14.41;51.78;103080.22;4939042;29;20047;-59
2021/12/19 08:29:55;;;;;;;9.25;3.42;;;;;;;14.44;51.85;103085.41;4956106;29;20034;-60
2021/12/19 08:32:23;;;;;;;8.43;3.75;;;;;;;14.46;50.66;103083.47;4956020;29;20105;-60
2021/12/19 08:34:48;;;;;;;10.40;3.28;;;;;;;14.48;51.46;103097.75;4939183;29;20027;-59
2021/12/19 08:37:15;;;;;;;8.98;3.67;;;;;;;14.48;50.57;103081.56;4956778;29;20027;-59
2021/12/19 08:39:42;;;;;;;9.73;3.40;;;;;;;14.46;50.57;103083.47;4956093;29;20039;-60
2021/12/19 08:42:07;;;;;;;10.82;3.75;;;;;;;14.50;50.71;103085.00;4956147;29;20118;-59
2021/12/19 08:44:33;;;;;;;11.05;4.43;;;;;;;14.45;51.37;103076.38;4955923;29;20098;-60
2021/12/19 08:46:58;;;;;;;13.18;4.25;;;;;;;14.51;51.83;103092.16;4955654;29;20162;-59
2021/12/19 08:49:23;;;;;;;12.68;4.03;;;;;;;14.50;52.15;103085.00;4955696;29;20023;-61
2021/12/19 08:51:49;;;;;;;8.18;3.30;;;;;;;14.50;52.13;103082.31;4955944;29;20031;-60
2021/12/19 08:54:14;;;;;;;11.25;4.10;;;;;;;14.47;51.57;103074.44;4955882;29;20489;-59
2021/12/19 08:56:40;;;;;;;12.05;4.93;;;;;;;14.52;50.64;103080.38;4955319;29;20030;-60
2021/12/19 08:59:05;;;;;;;13.57;5.00;;;;;;;14.53;51.50;103074.03;4955504;29;20378;-60
2021/12/19 09:01:32;;;;;;;9.73;4.35;;;;;;;14.54;50.40;103073.03;4956100;29;20031;-60
2021/12/19 09:03:57;;;;;;;14.60;4.90;;;;;;;14.55;51.85;103077.50;4955717;29;20404;-60
2021/12/19 09:06:23;;;;;;;14.68;4.85;;;;;;;14.51;50.80;103065.19;4955774;29;20056;-60
2021/12/19 09:08:48;;;;;;;13.10;4.75;;;;;;;14.53;52.02;103068.63;4954770;28;20472;-59
2021/12/19 09:11:13;;;;;;;13.15;4.72;;;;;;;14.61;51.92;103080.75;4938406;29;20032;-60
2021/12/19 09:13:39;;;;;;;10.52;4.15;;;;;;;14.65;51.96;103076.91;4955501;29;20119;-60
2021/12/19 09:16:04;;;;;;;12.90;4.95;;;;;;;14.70;50.48;103075.63;4955622;29;20035;-60
2021/12/19 09:18:30;;;;;;;10.02;4.18;;;;;;;14.74;50.87;103065.50;4955320;29;20121;-59
2021/12/19 09:20:56;;;;;;;10.30;5.13;;;;;;;14.80;51.71;103070.47;4938474;29;20027;-59
2021/12/19 09:23:22;;;;;;;9.88;4.38;;;;;;;14.80;51.54;103070.47;4922707;29;20031;-60
2021/12/19 09:25:48;;;;;;;10.55;4.13;;;;;;;14.81;52.09;103075.78;4955707;28;20384;-59
2021/12/19 09:28:13;;;;;;;13.07;5.25;;;;;;;14.84;50.69;103066.63;4938382;29;20031;-59
2021/12/19 09:30:42;;;;;;;13.77;4.28;;;;;;;14.85;50.68;103079.16;4957129;28;20031;-60
2021/12/19 09:33:08;;;;;;;13.20;5.03;;;;;;;14.87;50.29;103077.22;4958930;29;20032;-59
2021/12/19 09:35:34;;;;;;;14.52;5.70;;;;;;;14.88;51.16;103078.94;4958843;29;20488;-59
2021/12/19 09:38:01;;;;;;;12.55;5.05;;;;;;;14.89;52.01;103084.22;4958627;29;20396;-60
2021/12/19 09:40:33;;;;;;;10.70;4.93;;;;;;;14.88;51.72;103070.84;4958402;29;20122;-60
2021/12/19 09:43:03;;;;;;;14.57;5.13;;;;;;;14.90;50.57;103077.00;4958673;29;20054;-59
2021/12/19 09:45:30;;;;;;;13.75;4.72;;;;;;;14.89;50.51;103072.56;4958601;29;20031;-59
2021/12/19 09:47:56;;;;;;;13.70;5.22;;;;;;;14.87;50.32;103072.69;4958884;29;20027;-60
2021/12/19 09:50:22;;;;;;;17.77;6.60;;;;;;;14.85;51.03;103066.50;4958608;29;20114;-60
2021/12/19 09:52:49;;;;;;;13.25;5.90;;;;;;;14.86;50.43;103076.34;4958521;29;20027;-59
2021/12/19 09:55:17;;;;;;;12.88;4.78;;;;;;;14.84;50.77;103066.63;4958882;29;20499;-60
2021/12/19 09:57:42;;;;;;;13.63;5.32;;;;;;;14.84;51.71;103063.91;4958708;29;20035;-60
2021/12/19 10:00:08;;;;;;;14.45;5.70;;;;;;;14.90;51.43;103068.91;4958436;29;20039;-60
2021/12/19 10:02:34;;;;;;;13.85;6.38;;;;;;;14.89;50.66;103062.66;4940932;29;20035;-60
2021/12/19 10:05:14;;;;;;;15.63;5.22;;;;;;;14.91;51.49;103054.44;4958589;29;20040;-60
2021/12/19 10:07:49;;;;;;;14.65;4.70;;;;;;;14.92;52.12;103053.47;4958012;28;20031;-60
2021/12/19 10:10:24;;;;;;;13.57;5.22;;;;;;;14.92;50.60;103053.47;4958153;29;20548;-60
2021/12/19 10:12:57;;;;;;;9.90;4.18;;;;;;;14.92;51.04;103048.06;4926339;29;20031;-60
2021/12/19 10:15:25;;;;;;;13.30;4.72;;;;;;;14.93;51.17;103041.72;4958162;29;20493;-60
2021/12/19 10:18:03;;;;;;;10.18;4.40;;;;;;;14.91;51.65;103035.53;4958169;29;20038;-60
2021/12/19 10:20:40;;;;;;;11.23;4.13;;;;;;;14.91;51.07;103035.53;4958044;29;20074;-59
2021/12/19 10:23:21;;;;;;;18.80;5.28;;;;;;;14.90;51.66;103034.69;4941016;29;20106;-60
2021/12/19 10:25:57;;;;;;;13.48;4.82;;;;;;;14.89;52.02;103021.28;4957755;29;20037;-59
2021/12/19 10:28:22;;;;;;;13.63;4.32;;;;;;;14.89;51.02;103015.91;4957793;29;20441;-60
2021/12/19 10:30:49;;;;;;;16.02;5.20;;;;;;;14.90;52.05;103020.34;4957731;29;20069;-60
2021/12/19 10:33:23;;;;;;;20.83;5.57;;;;;;;14.92;51.58;103013.00;4941086;29;20094;-60
2021/12/19 10:35:57;;;;;;;13.70;5.95;;;;;;;14.93;50.97;103006.63;4958166;29;20038;-59
2021/12/19 10:38:25;;;;;;;12.57;5.07;;;;;;;14.94;51.83;103005.66;4957633;29;20433;-59
2021/12/19 10:40:53;;;;;;;13.43;4.85;;;;;;;14.95;52.00;103004.69;4924729;28;20024;-59
2021/12/19 10:43:19;;;;;;;16.17;6.88;;;;;;;14.95;51.08;103004.69;4957680;29;20469;-59
2021/12/19 10:45:47;;;;;;;13.88;5.35;;;;;;;14.98;51.07;102999.09;4940780;29;20066;-60
2021/12/19 10:48:22;;;;;;;17.77;5.55;;;;;;;14.99;50.93;102995.44;4957860;29;20511;-60
2021/12/19 10:50:48;;;;;;;17.13;5.97;;;;;;;15.00;50.71;102995.31;4957670;29;20023;-60
2021/12/19 10:53:15;;;;;;;14.38;5.45;;;;;;;15.02;51.64;102989.78;4960046;29;20061;-59
2021/12/19 10:55:43;;;;;;;15.60;6.20;;;;;;;15.04;51.76;102998.69;4942731;29;20481;-59
2021/12/19 10:58:43;;;;;;;13.18;5.47;;;;;;;15.04;51.85;102985.19;4959804;29;20031;-59
2021/12/19 11:01:20;;;;;;;13.65;5.53;;;;;;;15.04;50.71;102980.66;4939243;29;20513;-59
2021/12/19 11:03:54;;;;;;;15.85;5.43;;;;;;;15.03;50.46;102981.63;4957450;29;20059;-60
2021/12/19 11:06:42;;;;;;;10.57;5.40;;;;;;;15.05;50.38;102973.41;4957215;29;20030;-60
2021/12/19 11:09:19;;;;;;;10.20;3.67;;;;;;;15.07;51.85;102976.88;4944052;29;20493;-60
2021/12/19 11:11:58;;;;;;;13.48;5.20;;;;;;;15.07;51.30;102971.47;4940113;29;20027;-59
2021/12/19 11:14:39;;;;;;;9.23;4.43;;;;;;;15.08;51.89;102967.78;4957097;28;20114;-60
2021/12/19 11:17:11;;;;;;;14.63;5.45;;;;;;;15.09;51.15;102969.53;4957222;29;20027;-59
2021/12/19 11:19:39;;;;;;;15.82;5.35;;;;;;;15.08;52.10;102947.06;4956868;29;20428;-60
2021/12/19 11:22:05;;;;;;;8.75;4.05;;;;;;;15.08;51.12;102946.19;4957036;29;20156;-59
2021/12/19 11:24:31;;;;;;;9.45;4.38;;;;;;;15.13;50.83;102941.38;4939999;29;20031;-60
2021/12/19 11:26:59;;;;;;;10.10;4.82;;;;;;;15.16;50.35;102943.81;4920443;29;20051;-59
2021/12/19 11:29:25;;;;;;;12.77;4.95;;;;;;;15.19;51.51;102931.97;4937847;29;20525;-59
2021/12/19 11:31:58;;;;;;;13.90;4.88;;;;;;;15.19;52.03;102922.00;4937991;29;20120;-60
2021/12/19 11:34:29;;;;;;;10.48;4.45;;;;;;;15.24;50.36;102924.41;4937800;29;20034;-60
2021/12/19 11:37:01;;;;;;;9.27;3.70;;;;;;;15.25;50.73;102918.88;4937730;29;20031;-60
2021/12/19 11:39:30;;;;;;;12.00;4.40;;;;;;;15.27;51.30;102913.41;4936820;29;20032;-59
2021/12/19 11:42:21;;;;;;;7.53;4.38;;;;;;;15.32;51.07;102917.50;4936666;29;20485;-60
2021/12/19 11:45:09;;;;;;;6.55;3.33;;;;;;;15.30;51.57;102903.22;4935016;29;20040;-60
2021/12/19 11:47:56;;;;;;;6.65;3.72;;;;;;;15.33;50.50;102908.41;4937899;29;20597;-61
2021/12/19 11:50:28;;;;;;;8.65;2.95;;;;;;;15.30;51.98;102897.81;4937340;29;20023;-60
2021/12/19 11:53:08;;;;;;;8.90;3.80;;;;;;;15.37;51.06;102899.13;4937491;28;20485;-59
2021/12/19 11:55:37;;;;;;;8.65;3.38;;;;;;;15.36;50.38;102894.69;4937331;29;20047;-60
2021/12/19 11:58:09;;;;;;;6.93;2.78;;;;;;;15.35;51.47;102895.69;4937430;29;20109;-60
2021/12/19 12:00:53;;;;;;;8.25;2.67;;;;;;;15.34;51.79;102888.53;4937495;29;20392;-60
2021/12/19 12:03:21;;;;;;;7.00;2.88;;;;;;;15.33;50.35;102886.81;4937230;29;20027;-59
2021/12/19 12:05:51;;;;;;;7.97;2.75;;;;;;;15.35;50.44;102882.19;4937459;29;20496;-60
2021/12/19 12:08:21;;;;;;;6.47;3.00;;;;;;;15.35;50.66;102868.69;4936061;29;20020;-60
2021/12/19 12:10:50;;;;;;;5.45;3.38;;;;;;;15.36;50.52;102875.78;4937288;29;20020;-60
2021/12/19 12:13:41;;;;;;;6.85;3.20;;;;;;;15.38;51.71;102871.13;4936120;28;20183;-60
2021/12/19 12:16:14;;;;;;;7.50;3.00;;;;;;;15.39;50.14;102867.47;4937192;29;20016;-60
2021/12/19 12:18:40;;;;;;;;;;;;;;;15.38;51.63;102865.72;4939263;28;20035;-59
2021/12/19 12:24:03;;;;;;;5.60;3.20;;;;;;;15.41;50.41;102861.97;4939509;29;20031;-60
2021/12/19 12:26:43;;;;;;;8.80;3.22;;;;;;;15.41;50.94;102859.25;4943872;29;20051;-60
2021/12/19 12:29:10;;;;;;;7.22;2.72;;;;;;;15.44;50.10;102859.88;4958471;29;20100;-60
2021/12/19 12:31:37;;;;;;;9.65;3.53;;;;;;;15.46;50.26;102860.69;4958133;29;20037;-60
2021/12/19 12:34:03;;;;;;;8.27;3.05;;;;;;;15.47;51.48;102861.53;4958442;29;20369;-60